createdAt,value
2019-05-17T00:01:02.880Z,16.00
2019-05-17T00:03:36.412Z,16.00
2019-05-17T00:06:06.743Z,16.00
2019-05-17T00:08:38.270Z,16.00
2019-05-17T00:11:08.142Z,16.00
2019-05-17T00:13:38.697Z,16.00
2019-05-17T00:16:12.606Z,16.00
2019-05-17T00:18:42.134Z,16.00
2019-05-17T00:21:11.640Z,16.00
2019-05-17T00:23:42.963Z,16.00
2019-05-17T00:26:13.582Z,16.00
2019-05-17T00:28:46.776Z,16.00
2019-05-17T00:31:17.233Z,16.00
2019-05-17T00:33:47.752Z,16.00
2019-05-17T00:36:18.273Z,16.00
2019-05-17T00:38:51.383Z,16.00
2019-05-17T00:41:18.902Z,16.00
2019-05-17T00:43:52.838Z,16.00
2019-05-17T00:46:22.559Z,16.00
2019-05-17T00:48:52.015Z,16.00
2019-05-17T00:51:22.113Z,16.00
2019-05-17T00:53:51.718Z,15.90
2019-05-17T00:56:21.204Z,16.00
2019-05-17T00:58:50.675Z,16.00
2019-05-17T01:01:21.673Z,15.90
2019-05-17T01:03:51.134Z,15.90
2019-05-17T01:06:20.623Z,15.90
2019-05-17T01:09:01.073Z,15.90
2019-05-17T01:11:26.948Z,15.90
2019-05-17T01:13:58.067Z,15.90
2019-05-17T01:16:27.201Z,15.90
2019-05-17T01:18:57.372Z,15.80
2019-05-17T01:21:26.840Z,15.80
2019-05-17T01:23:56.380Z,15.80
2019-05-17T01:26:26.740Z,15.90
2019-05-17T01:28:57.304Z,15.90
2019-05-17T01:31:29.478Z,15.90
2019-05-17T01:34:01.503Z,16.00
2019-05-17T01:36:37.076Z,16.00
2019-05-17T01:39:17.679Z,16.00
2019-05-17T01:41:39.287Z,16.00
2019-05-17T01:44:10.091Z,16.00
2019-05-17T01:46:41.190Z,16.00
2019-05-17T01:49:10.555Z,16.00
2019-05-17T01:51:39.998Z,16.00
2019-05-17T01:54:09.444Z,16.00
2019-05-17T01:56:38.899Z,16.00
2019-05-17T01:59:08.436Z,16.00
2019-05-17T02:01:37.887Z,16.00
2019-05-17T02:04:07.470Z,16.00
2019-05-17T02:06:36.972Z,15.90
2019-05-17T02:09:11.652Z,15.90
2019-05-17T02:11:41.150Z,15.90
2019-05-17T02:14:16.766Z,15.90
2019-05-17T02:16:46.861Z,15.90
2019-05-17T02:19:17.461Z,15.90
2019-05-17T02:21:48.636Z,15.90
2019-05-17T02:24:19.719Z,15.90
2019-05-17T02:26:49.223Z,15.90
2019-05-17T02:29:21.471Z,15.90
2019-05-17T02:31:52.567Z,16.00
2019-05-17T02:34:23.880Z,16.00
2019-05-17T02:37:03.615Z,15.90
2019-05-17T02:39:32.943Z,16.00
2019-05-17T02:42:06.577Z,16.00
2019-05-17T02:44:37.355Z,16.00
2019-05-17T02:47:06.822Z,16.00
2019-05-17T02:49:37.617Z,16.00
2019-05-17T02:52:07.115Z,16.00
2019-05-17T02:54:36.592Z,16.00
2019-05-17T02:57:06.067Z,16.00
2019-05-17T02:59:35.511Z,16.00
2019-05-17T03:02:05.106Z,16.00
2019-05-17T03:04:35.370Z,15.90
2019-05-17T03:07:05.195Z,15.90
2019-05-17T03:09:34.742Z,15.90
2019-05-17T03:12:04.249Z,15.90
2019-05-17T03:14:33.678Z,15.90
2019-05-17T03:17:05.465Z,15.90
2019-05-17T03:19:37.528Z,15.90
2019-05-17T03:22:08.210Z,15.90
2019-05-17T03:24:38.356Z,15.90
2019-05-17T03:27:13.517Z,15.90
2019-05-17T03:29:42.558Z,15.90
2019-05-17T03:32:17.237Z,15.90
2019-05-17T03:34:45.152Z,16.00
2019-05-17T03:37:16.278Z,16.00
2019-05-17T03:39:46.024Z,16.00
2019-05-17T03:42:15.499Z,16.10
2019-05-17T03:44:46.510Z,16.00
2019-05-17T03:47:28.570Z,16.10
2019-05-17T03:49:48.792Z,16.10
2019-05-17T03:52:18.353Z,16.10
2019-05-17T03:54:47.906Z,16.10
2019-05-17T03:57:18.594Z,16.20
2019-05-17T03:59:48.140Z,16.20
2019-05-17T04:02:17.618Z,16.20
2019-05-17T04:04:47.231Z,16.20
2019-05-17T04:07:16.684Z,16.20
2019-05-17T04:09:46.268Z,16.20
2019-05-17T04:12:16.728Z,16.20
2019-05-17T04:14:46.205Z,16.20
2019-05-17T04:17:17.410Z,16.10
2019-05-17T04:19:46.851Z,16.10
2019-05-17T04:22:18.793Z,16.10
2019-05-17T04:24:48.729Z,16.10
2019-05-17T04:27:18.289Z,16.10
2019-05-17T04:29:47.867Z,16.10
2019-05-17T04:32:17.337Z,16.10
2019-05-17T04:34:47.040Z,16.10
2019-05-17T04:37:16.601Z,16.10
2019-05-17T04:39:46.082Z,16.20
2019-05-17T04:42:17.168Z,16.20
2019-05-17T04:44:48.195Z,16.20
2019-05-17T04:47:17.650Z,16.20
2019-05-17T04:49:54.291Z,16.30
2019-05-17T04:52:24.775Z,16.50
2019-05-17T04:54:55.457Z,16.50
2019-05-17T04:57:24.994Z,16.60
2019-05-17T04:59:54.593Z,16.60
2019-05-17T05:02:24.040Z,16.60
2019-05-17T05:04:53.625Z,16.70
2019-05-17T05:07:23.224Z,16.80
2019-05-17T05:09:52.715Z,16.80
2019-05-17T05:12:24.828Z,16.90
2019-05-17T05:14:54.401Z,16.90
2019-05-17T05:17:24.016Z,16.90
2019-05-17T05:19:55.884Z,16.90
2019-05-17T05:22:25.553Z,17.00
2019-05-17T05:24:55.456Z,17.00
2019-05-17T05:27:24.889Z,17.00
2019-05-17T05:29:55.287Z,17.20
2019-05-17T05:32:28.782Z,17.20
2019-05-17T05:35:02.873Z,17.30
2019-05-17T05:37:34.134Z,17.40
2019-05-17T05:40:05.135Z,17.40
2019-05-17T05:42:34.647Z,17.40
2019-05-17T05:45:05.170Z,17.40
2019-05-17T05:47:36.157Z,17.50
2019-05-17T05:50:12.171Z,17.50
2019-05-17T05:52:42.713Z,17.50
2019-05-17T05:55:14.061Z,17.50
2019-05-17T05:57:43.515Z,17.50
2019-05-17T06:00:16.422Z,17.50
2019-05-17T06:02:45.936Z,17.60
2019-05-17T06:05:21.993Z,17.50
2019-05-17T06:07:56.135Z,17.50
2019-05-17T06:10:32.392Z,17.50
2019-05-17T06:13:03.184Z,17.60
2019-05-17T06:15:37.032Z,17.60
2019-05-17T06:18:06.378Z,17.70
2019-05-17T06:20:37.369Z,17.90
2019-05-17T06:23:08.427Z,18.00
2019-05-17T06:25:37.984Z,18.10
2019-05-17T06:28:07.432Z,18.10
2019-05-17T06:30:39.160Z,18.10
2019-05-17T06:33:11.699Z,18.10
2019-05-17T06:35:42.380Z,18.00
2019-05-17T06:38:13.227Z,18.00
2019-05-17T06:40:42.744Z,18.00
2019-05-17T06:43:13.318Z,18.00
2019-05-17T06:45:43.007Z,18.00
2019-05-17T06:48:12.496Z,18.10
2019-05-17T06:50:43.635Z,18.20
2019-05-17T06:53:15.039Z,18.30
2019-05-17T06:55:44.528Z,18.40
2019-05-17T06:58:13.980Z,18.40
2019-05-17T07:00:49.757Z,18.50
2019-05-17T07:03:23.148Z,18.50
2019-05-17T07:06:00.337Z,18.50
2019-05-17T07:08:40.149Z,18.40
2019-05-17T07:11:05.549Z,18.40
2019-05-17T07:13:39.530Z,18.40
2019-05-17T07:16:19.645Z,18.40
2019-05-17T07:18:51.996Z,18.30
2019-05-17T07:21:21.490Z,18.40
2019-05-17T07:23:52.051Z,18.50
2019-05-17T07:26:23.144Z,18.70
2019-05-17T07:28:52.611Z,18.80
2019-05-17T07:31:23.183Z,18.90
2019-05-17T07:33:54.295Z,18.90
2019-05-17T07:36:30.626Z,19.00
2019-05-17T07:39:03.747Z,18.90
2019-05-17T07:41:40.231Z,18.90
2019-05-17T07:44:10.007Z,18.90
2019-05-17T07:46:40.121Z,18.80
2019-05-17T07:49:11.087Z,18.80
2019-05-17T07:51:42.871Z,18.70
2019-05-17T07:54:12.457Z,18.50
2019-05-17T07:56:41.952Z,18.50
2019-05-17T07:59:11.514Z,18.50
2019-05-17T08:01:50.417Z,18.50
2019-05-17T08:04:20.404Z,18.60
2019-05-17T08:09:50.607Z,18.80
2019-05-17T08:12:23.165Z,18.90
2019-05-17T08:14:53.518Z,18.90
2019-05-17T08:17:22.983Z,19.10
2019-05-17T08:19:52.465Z,19.30
2019-05-17T08:22:23.915Z,19.50
2019-05-17T08:24:55.672Z,19.70
2019-05-17T08:27:25.183Z,19.90
2019-05-17T08:29:56.305Z,19.70
2019-05-17T08:32:25.698Z,19.70
2019-05-17T08:34:56.723Z,19.80
2019-05-17T08:37:30.186Z,19.80
2019-05-17T08:40:01.071Z,19.90
2019-05-17T08:42:35.805Z,20.00
2019-05-17T08:45:09.687Z,20.10
2019-05-17T08:47:41.534Z,20.10
2019-05-17T08:50:20.081Z,20.20
2019-05-17T08:52:54.382Z,20.20
2019-05-17T08:55:29.770Z,20.30
2019-05-17T08:58:01.099Z,20.40
2019-05-17T09:00:31.385Z,20.50
2019-05-17T09:03:01.166Z,20.60
2019-05-17T09:05:30.687Z,20.70
2019-05-17T09:08:00.234Z,20.90
2019-05-17T09:10:30.647Z,20.90
2019-05-17T09:13:01.790Z,20.90
2019-05-17T09:15:31.402Z,20.90
2019-05-17T09:18:00.916Z,20.90
2019-05-17T09:20:30.491Z,21.00
2019-05-17T09:23:04.114Z,21.00
2019-05-17T09:25:35.249Z,21.00
2019-05-17T09:28:05.988Z,20.90
2019-05-17T09:30:40.594Z,20.80
2019-05-17T09:33:11.603Z,20.80
2019-05-17T09:35:43.867Z,20.90
2019-05-17T09:38:20.131Z,20.90
2019-05-17T09:40:50.700Z,20.90
2019-05-17T09:43:21.960Z,20.90
2019-05-17T09:45:51.965Z,20.90
2019-05-17T09:48:21.531Z,21.10
2019-05-17T09:50:50.975Z,21.30
2019-05-17T09:53:22.013Z,21.50
2019-05-17T09:55:54.290Z,21.60
2019-05-17T09:58:23.764Z,21.60
2019-05-17T10:00:54.221Z,21.60
2019-05-17T10:03:24.229Z,21.70
2019-05-17T10:05:53.677Z,21.90
2019-05-17T10:08:23.278Z,22.10
2019-05-17T10:11:04.985Z,22.20
2019-05-17T10:13:25.447Z,22.30
2019-05-17T10:15:56.870Z,22.40
2019-05-17T10:18:29.433Z,22.50
2019-05-17T10:21:03.028Z,22.50
2019-05-17T10:23:34.031Z,22.40
2019-05-17T10:26:05.883Z,22.30
2019-05-17T10:28:39.806Z,22.20
2019-05-17T10:31:12.481Z,22.10
2019-05-17T10:33:43.938Z,22.20
2019-05-17T10:36:16.939Z,22.20
2019-05-17T10:38:50.030Z,22.20
2019-05-17T10:41:19.891Z,22.20
2019-05-17T10:43:50.139Z,22.30
2019-05-17T10:46:20.637Z,22.30
2019-05-17T10:48:51.302Z,22.30
2019-05-17T10:51:21.657Z,22.30
2019-05-17T10:53:55.702Z,22.20
2019-05-17T10:56:25.188Z,22.20
2019-05-17T10:58:55.750Z,22.20
2019-05-17T11:01:31.033Z,22.40
2019-05-17T11:04:03.462Z,22.60
2019-05-17T11:06:36.104Z,22.70
2019-05-17T11:09:10.501Z,22.70
2019-05-17T11:11:40.453Z,22.80
2019-05-17T11:14:10.011Z,22.80
2019-05-17T11:16:39.479Z,22.60
2019-05-17T11:19:15.737Z,22.50
2019-05-17T11:21:49.551Z,22.50
2019-05-17T11:24:31.439Z,22.50
2019-05-17T11:27:03.226Z,22.40
2019-05-17T11:29:33.633Z,22.40
2019-05-17T11:32:03.646Z,22.40
2019-05-17T11:34:33.132Z,22.30
2019-05-17T11:37:02.866Z,22.40
2019-05-17T11:39:32.332Z,22.40
2019-05-17T11:42:02.200Z,22.40
2019-05-17T11:44:31.689Z,22.40
2019-05-17T11:47:01.444Z,22.40
2019-05-17T11:49:31.133Z,22.50
2019-05-17T11:52:00.788Z,22.70
2019-05-17T11:54:30.883Z,22.80
2019-05-17T11:57:00.631Z,22.90
2019-05-17T11:59:37.435Z,22.90
2019-05-17T12:02:11.019Z,22.90
2019-05-17T12:04:41.806Z,22.90
2019-05-17T12:07:12.028Z,22.80
2019-05-17T12:09:41.694Z,22.70
2019-05-17T12:12:11.603Z,22.60
2019-05-17T12:14:41.763Z,22.60
2019-05-17T12:17:12.772Z,22.50
2019-05-17T12:19:45.521Z,22.50
2019-05-17T12:22:14.973Z,22.40
2019-05-17T12:24:44.443Z,22.30
2019-05-17T12:27:14.932Z,22.20
2019-05-17T12:29:48.784Z,22.00
2019-05-17T12:35:13.533Z,21.80
2019-05-17T12:37:42.948Z,21.70
2019-05-17T12:40:12.642Z,21.70
2019-05-17T12:42:42.212Z,21.60
2019-05-17T12:45:11.719Z,21.60
2019-05-17T12:50:33.289Z,21.50
2019-05-17T12:53:03.429Z,21.50
2019-05-17T12:55:32.876Z,21.50
2019-05-17T12:58:04.724Z,21.50
2019-05-17T13:00:35.400Z,21.40
2019-05-17T13:03:05.464Z,21.30
2019-05-17T13:05:36.474Z,21.20
2019-05-17T13:08:06.580Z,21.20
2019-05-17T13:10:40.587Z,21.10
2019-05-17T13:13:11.674Z,21.00
2019-05-17T13:15:41.442Z,21.00
2019-05-17T13:18:11.470Z,20.90
2019-05-17T13:20:41.165Z,20.70
2019-05-17T13:23:10.855Z,20.30
2019-05-17T13:25:45.557Z,20.10
2019-05-17T13:28:15.049Z,20.00
2019-05-17T13:30:47.178Z,19.90
2019-05-17T13:33:21.181Z,19.80
2019-05-17T13:35:51.320Z,19.90
2019-05-17T13:38:22.457Z,19.80
2019-05-17T13:40:54.113Z,19.70
2019-05-17T13:43:28.571Z,19.80
2019-05-17T13:46:01.486Z,19.70
2019-05-17T13:48:31.214Z,19.70
2019-05-17T13:51:02.843Z,19.60
2019-05-17T13:53:32.323Z,19.50
2019-05-17T13:56:01.965Z,19.50
2019-05-17T13:58:31.492Z,19.60
2019-05-17T14:01:00.920Z,19.60
2019-05-17T14:03:30.969Z,19.60
2019-05-17T14:06:01.531Z,19.60
2019-05-17T14:08:31.607Z,19.50
2019-05-17T14:11:01.124Z,19.50
2019-05-17T14:13:30.541Z,19.60
2019-05-17T14:16:01.425Z,19.60
2019-05-17T14:18:30.919Z,19.70
2019-05-17T14:21:06.196Z,19.60
2019-05-17T14:23:42.101Z,19.70
2019-05-17T14:26:15.143Z,19.70
2019-05-17T14:28:45.142Z,19.80
2019-05-17T14:31:26.366Z,20.00
2019-05-17T14:33:57.588Z,20.20
2019-05-17T14:36:27.120Z,20.40
2019-05-17T14:38:58.586Z,20.50
2019-05-17T14:41:28.807Z,20.60
2019-05-17T14:43:58.304Z,20.80
2019-05-17T14:46:29.162Z,20.80
2019-05-17T14:48:58.904Z,20.80
2019-05-17T14:51:32.386Z,20.70
2019-05-17T14:54:04.973Z,20.80
2019-05-17T14:56:37.210Z,20.90
2019-05-17T14:59:20.677Z,21.00
2019-05-17T15:01:55.884Z,21.00
2019-05-17T15:04:25.459Z,21.10
2019-05-17T15:06:57.940Z,21.10
2019-05-17T15:09:30.326Z,21.10
2019-05-17T15:12:00.688Z,21.20
2019-05-17T15:14:30.132Z,21.20
2019-05-17T15:17:04.673Z,21.20
2019-05-17T15:19:40.801Z,21.30
2019-05-17T15:22:21.607Z,21.30
2019-05-17T15:25:13.806Z,21.40
2019-05-17T15:27:55.375Z,21.40
2019-05-17T15:30:30.904Z,21.50
2019-05-17T15:33:16.446Z,21.50
2019-05-17T15:35:58.438Z,21.70
2019-05-17T15:38:31.116Z,21.80
2019-05-17T15:41:01.131Z,21.90
2019-05-17T15:43:31.716Z,22.00
2019-05-17T15:46:01.723Z,22.10
2019-05-17T15:48:32.787Z,22.20
2019-05-17T15:51:02.273Z,22.20
2019-05-17T15:53:33.367Z,22.40
2019-05-17T15:56:05.717Z,22.60
2019-05-17T15:58:39.154Z,22.70
2019-05-17T16:01:09.845Z,22.90
2019-05-17T16:03:42.391Z,23.00
2019-05-17T16:06:13.533Z,23.30
2019-05-17T16:08:45.401Z,23.40
2019-05-17T16:11:17.869Z,23.70
2019-05-17T16:13:50.226Z,23.80
2019-05-17T16:16:21.512Z,23.90
2019-05-17T16:18:51.049Z,24.10
2019-05-17T16:21:20.557Z,24.20
2019-05-17T16:23:50.308Z,24.30
2019-05-17T16:26:20.994Z,24.50
2019-05-17T16:28:54.846Z,25.00
2019-05-17T16:31:25.916Z,25.80
2019-05-17T16:33:56.644Z,26.30
2019-05-17T16:36:26.123Z,26.50
2019-05-17T16:38:55.599Z,26.80
2019-05-17T16:41:25.684Z,27.20
2019-05-17T16:43:57.831Z,26.90
2019-05-17T16:46:27.267Z,26.00
2019-05-17T16:48:58.571Z,25.50
2019-05-17T16:51:29.678Z,25.20
2019-05-17T16:54:03.531Z,25.20
2019-05-17T16:56:34.094Z,24.80
2019-05-17T16:59:03.725Z,24.40
2019-05-17T17:01:38.173Z,24.00
2019-05-17T17:04:09.467Z,23.70
2019-05-17T17:06:38.983Z,23.40
2019-05-17T17:09:10.112Z,23.10
2019-05-17T17:11:39.586Z,23.00
2019-05-17T17:14:09.101Z,22.80
2019-05-17T17:16:40.429Z,22.70
2019-05-17T17:19:14.483Z,22.70
2019-05-17T17:21:43.964Z,22.80
2019-05-17T17:24:13.451Z,23.50
2019-05-17T17:26:45.124Z,24.40
2019-05-17T17:29:22.216Z,25.20
2019-05-17T17:32:01.454Z,25.70
2019-05-17T17:34:30.889Z,25.90
2019-05-17T17:37:02.046Z,26.20
2019-05-17T17:39:37.562Z,26.50
2019-05-17T17:42:07.491Z,26.30
2019-05-17T17:44:40.323Z,26.10
2019-05-17T17:47:11.648Z,26.10
2019-05-17T17:49:41.182Z,25.90
2019-05-17T17:52:10.629Z,25.80
2019-05-17T17:54:42.301Z,25.60
2019-05-17T17:57:15.419Z,25.10
2019-05-17T17:59:45.953Z,24.60
2019-05-17T18:02:15.471Z,24.10
2019-05-17T18:04:45.440Z,23.80
2019-05-17T18:07:18.402Z,23.40
2019-05-17T18:09:48.368Z,23.00
2019-05-17T18:12:17.815Z,22.70
2019-05-17T18:14:47.330Z,22.60
2019-05-17T18:17:17.869Z,22.40
2019-05-17T18:19:49.484Z,22.30
2019-05-17T18:22:21.264Z,22.10
2019-05-17T18:24:52.246Z,22.00
2019-05-17T18:27:22.783Z,21.90
2019-05-17T18:30:04.993Z,21.80
2019-05-17T18:32:39.757Z,21.60
2019-05-17T18:35:15.163Z,21.50
2019-05-17T18:37:48.077Z,21.40
2019-05-17T18:40:22.857Z,21.40
2019-05-17T18:42:53.811Z,21.20
2019-05-17T18:45:28.078Z,21.20
2019-05-17T18:48:02.632Z,21.10
2019-05-17T18:50:36.881Z,21.00
2019-05-17T18:53:16.735Z,20.90
2019-05-17T18:55:44.879Z,20.80
2019-05-17T18:58:17.391Z,20.80
2019-05-17T19:00:48.381Z,20.70
2019-05-17T19:03:20.897Z,20.60
2019-05-17T19:05:51.783Z,20.60
2019-05-17T19:08:21.279Z,20.50
2019-05-17T19:10:53.315Z,20.50
2019-05-17T19:13:22.877Z,20.40
2019-05-17T19:15:52.649Z,20.30
2019-05-17T19:18:24.485Z,20.30
2019-05-17T19:20:55.490Z,20.20
2019-05-17T19:23:26.377Z,20.20
2019-05-17T19:25:56.426Z,20.10
2019-05-17T19:28:25.880Z,20.10
2019-05-17T19:30:57.653Z,20.00
2019-05-17T19:33:27.819Z,19.90
2019-05-17T19:35:57.328Z,19.80
2019-05-17T19:38:28.460Z,19.80
2019-05-17T19:40:58.298Z,19.80
2019-05-17T19:43:27.923Z,19.80
2019-05-17T19:45:59.612Z,19.80
2019-05-17T19:48:29.139Z,19.80
2019-05-17T19:50:58.629Z,19.80
2019-05-17T19:53:29.644Z,19.80
2019-05-17T19:56:01.391Z,19.80
2019-05-17T19:58:34.279Z,19.70
2019-05-17T20:01:05.020Z,19.70
2019-05-17T20:03:34.974Z,19.60
2019-05-17T20:06:05.744Z,19.60
2019-05-17T20:08:38.176Z,19.50
2019-05-17T20:11:07.491Z,19.50
2019-05-17T20:13:36.932Z,19.50
2019-05-17T20:16:06.788Z,19.40
2019-05-17T20:18:36.285Z,19.40
2019-05-17T20:21:05.903Z,19.40
2019-05-17T20:23:35.330Z,19.30
2019-05-17T20:26:06.142Z,19.30
2019-05-17T20:28:35.669Z,19.30
2019-05-17T20:31:07.385Z,19.20
2019-05-17T20:33:36.892Z,19.20
2019-05-17T20:36:06.545Z,19.10
2019-05-17T20:38:37.029Z,19.10
2019-05-17T20:41:06.740Z,19.10
2019-05-17T20:43:40.491Z,19.10
2019-05-17T20:46:11.757Z,19.00
2019-05-17T20:48:43.910Z,19.00
2019-05-17T20:51:15.813Z,19.00
2019-05-17T20:53:45.284Z,18.90
2019-05-17T20:56:30.124Z,18.90
2019-05-17T20:58:48.641Z,18.80
2019-05-17T21:01:19.662Z,18.80
2019-05-17T21:03:52.050Z,18.80
2019-05-17T21:06:21.515Z,18.80
2019-05-17T21:08:50.961Z,18.80
2019-05-17T21:11:20.424Z,18.80
2019-05-17T21:13:52.062Z,18.80
2019-05-17T21:16:29.592Z,18.80
2019-05-17T21:18:59.076Z,18.80
2019-05-17T21:21:31.359Z,18.80
2019-05-17T21:24:01.207Z,18.80
2019-05-17T21:26:33.180Z,18.80
2019-05-17T21:29:04.719Z,18.80
2019-05-17T21:31:42.236Z,18.80
2019-05-17T21:34:13.255Z,18.80
2019-05-17T21:36:44.351Z,18.80
2019-05-17T21:39:13.832Z,18.80
2019-05-17T21:41:44.840Z,18.70
2019-05-17T21:44:14.309Z,18.70
2019-05-17T21:47:02.418Z,18.60
2019-05-17T21:49:20.138Z,18.60
2019-05-17T21:51:53.182Z,18.60
2019-05-17T21:54:23.936Z,18.60
2019-05-17T21:56:53.406Z,18.50
2019-05-17T21:59:22.903Z,18.50
2019-05-17T22:01:55.287Z,18.50
2019-05-17T22:04:29.245Z,18.50
2019-05-17T22:07:00.338Z,18.50
2019-05-17T22:09:30.372Z,18.50
2019-05-17T22:12:01.496Z,18.40
2019-05-17T22:14:30.989Z,18.40
2019-05-17T22:17:02.068Z,18.30
2019-05-17T22:19:31.500Z,18.40
2019-05-17T22:22:01.020Z,18.30
2019-05-17T22:24:32.610Z,18.30
2019-05-17T22:27:02.118Z,18.30
2019-05-17T22:29:33.218Z,18.30
2019-05-17T22:32:02.761Z,18.20
2019-05-17T22:34:33.181Z,18.20
2019-05-17T22:37:02.668Z,18.10
2019-05-17T22:39:34.388Z,18.00
2019-05-17T22:42:04.007Z,18.00
2019-05-17T22:44:33.478Z,18.00
2019-05-17T22:47:02.958Z,18.00
2019-05-17T22:49:32.393Z,18.00
2019-05-17T22:52:01.922Z,18.00
2019-05-17T22:54:33.986Z,17.90
2019-05-17T22:57:06.019Z,17.80
2019-05-17T22:59:35.529Z,17.80
2019-05-17T23:02:05.076Z,17.70
2019-05-17T23:04:34.522Z,17.70
2019-05-17T23:07:07.679Z,17.70
2019-05-17T23:09:38.136Z,17.60
2019-05-17T23:12:09.261Z,17.60
2019-05-17T23:14:39.065Z,17.60
2019-05-17T23:17:08.815Z,17.50
2019-05-17T23:19:39.349Z,17.50
2019-05-17T23:22:09.697Z,17.50
2019-05-17T23:24:39.131Z,17.50
2019-05-17T23:27:10.203Z,17.50
2019-05-17T23:29:41.269Z,17.50
2019-05-17T23:32:11.372Z,17.50
2019-05-17T23:34:41.382Z,17.50
2019-05-17T23:37:10.836Z,17.60
2019-05-17T23:39:40.319Z,17.60
2019-05-17T23:42:09.775Z,17.60
2019-05-17T23:44:41.602Z,17.60
2019-05-17T23:47:11.058Z,17.60
2019-05-17T23:49:42.166Z,17.60
2019-05-17T23:52:11.606Z,17.60
2019-05-17T23:54:41.050Z,17.60
2019-05-17T23:57:11.487Z,17.40
2019-05-17T23:59:41.707Z,17.30
